Time,TemperatureF,DewpointF,PressureIn,WindDirection,WindDirectionDegrees,WindSpeedMPH,WindSpeedGustMPH,Humidity,HourlyPrecipIn,Conditions,Clouds,dailyrainin,SolarRadiationWatts/m^2,SoftwareType,DateUTC
2013-07-12 00:32:00,64.0,52.0,-100.00,SSW,197,17.0,19.0,64,0.00,,,0.03,1.000000,,2013-07-12 07:32:00,
2013-07-12 00:43:00,64.0,52.0,-100.00,SSW,197,17.0,19.0,64,0.00,,,0.03,1.000000,,2013-07-12 07:43:00,
2013-07-12 00:52:00,64.0,52.0,-100.00,SSW,197,17.0,19.0,64,0.00,,,0.03,1.000000,,2013-07-12 07:52:00,
2013-07-12 01:21:00,62.0,53.0,-100.00,SSW,193,15.0,20.0,72,0.00,,,0.03,1.000000,,2013-07-12 08:21:00,
2013-07-12 01:32:00,62.0,53.0,-100.00,SSW,193,15.0,20.0,72,0.00,,,0.03,1.000000,,2013-07-12 08:32:00,
2013-07-12 01:42:00,62.0,53.0,-100.00,SSW,193,15.0,20.0,72,0.00,,,0.03,1.000000,,2013-07-12 08:42:00,
2013-07-12 01:53:00,62.0,53.0,-100.00,SSW,193,15.0,20.0,72,0.00,,,0.03,1.000000,,2013-07-12 08:53:00,
2013-07-12 02:22:00,62.0,54.0,-100.00,SSW,199,15.0,19.0,76,0.00,,,0.03,1.000000,,2013-07-12 09:22:00,
2013-07-12 02:32:00,62.0,54.0,-100.00,SSW,199,15.0,19.0,76,0.00,,,0.03,1.000000,,2013-07-12 09:32:00,
2013-07-12 02:42:00,62.0,54.0,-100.00,SSW,199,15.0,19.0,76,0.00,,,0.03,1.000000,,2013-07-12 09:42:00,
2013-07-12 02:52:00,62.0,54.0,-100.00,SSW,199,15.0,19.0,76,0.00,,,0.03,1.000000,,2013-07-12 09:52:00,
2013-07-12 03:22:00,62.0,53.0,-100.00,SSW,198,13.0,19.0,72,0.00,,,-99.99,1.000000,,2013-07-12 10:22:00,
2013-07-12 03:33:00,62.0,53.0,-100.00,SSW,198,13.0,19.0,72,0.00,,,-99.99,1.000000,,2013-07-12 10:33:00,
2013-07-12 03:42:00,62.0,53.0,-100.00,SSW,198,13.0,19.0,72,0.00,,,-99.99,1.000000,,2013-07-12 10:42:00,
2013-07-12 03:52:00,62.0,53.0,-100.00,SSW,198,13.0,19.0,72,0.00,,,-99.99,1.000000,,2013-07-12 10:52:00,
2013-07-12 04:32:00,62.0,53.0,-100.00,SSW,193,13.0,18.0,73,0.00,,,0.01,1.000000,,2013-07-12 11:32:00,
2013-07-12 04:43:00,62.0,53.0,-100.00,SSW,193,13.0,18.0,73,0.00,,,0.01,1.000000,,2013-07-12 11:43:00,
2013-07-12 04:52:00,62.0,53.0,-100.00,SSW,193,13.0,18.0,73,0.00,,,0.01,1.000000,,2013-07-12 11:52:00,
2013-07-12 05:32:00,62.0,54.0,-100.00,South,190,13.0,18.0,76,0.00,,,0.00,1.000000,,2013-07-12 12:32:00,
2013-07-12 05:43:00,62.0,54.0,-100.00,South,190,13.0,18.0,76,0.00,,,0.00,1.000000,,2013-07-12 12:43:00,
2013-07-12 05:52:00,62.0,54.0,-100.00,South,190,13.0,18.0,76,0.00,,,0.00,1.000000,,2013-07-12 12:52:00,
2013-07-12 06:22:00,62.0,54.0,-100.00,South,187,13.0,16.0,76,0.00,,,0.00,2.000000,,2013-07-12 13:22:00,
2013-07-12 06:32:00,62.0,54.0,-100.00,South,187,13.0,16.0,76,0.00,,,0.00,2.000000,,2013-07-12 13:32:00,
2013-07-12 06:43:00,62.0,54.0,-100.00,South,187,13.0,16.0,76,0.00,,,0.00,2.000000,,2013-07-12 13:43:00,
2013-07-12 06:53:00,62.0,54.0,-100.00,South,187,13.0,16.0,76,0.00,,,0.00,2.000000,,2013-07-12 13:53:00,
2013-07-12 07:32:00,63.0,52.0,-100.00,South,188,10.0,15.0,68,0.00,,,0.00,37.000000,,2013-07-12 14:32:00,
2013-07-12 07:43:00,63.0,52.0,-100.00,South,188,10.0,15.0,68,0.00,,,0.00,37.000000,,2013-07-12 14:43:00,
2013-07-12 07:53:00,63.0,52.0,-100.00,South,188,10.0,15.0,68,0.00,,,0.00,37.000000,,2013-07-12 14:53:00,
2013-07-12 08:43:00,67.0,54.0,-100.00,South,183,11.0,15.0,63,0.00,,,0.00,200.000000,,2013-07-12 15:43:00,
2013-07-12 08:52:00,67.0,54.0,-100.00,South,183,11.0,15.0,63,0.00,,,0.00,200.000000,,2013-07-12 15:52:00,
2013-07-12 09:32:00,70.0,53.0,-100.00,South,176,9.0,16.0,54,0.00,,,0.00,156.000000,,2013-07-12 16:32:00,
2013-07-12 09:42:00,70.0,53.0,-100.00,South,176,9.0,16.0,54,0.00,,,0.00,156.000000,,2013-07-12 16:42:00,
2013-07-12 09:54:00,70.0,53.0,-100.00,South,176,9.0,16.0,54,0.00,,,0.00,156.000000,,2013-07-12 16:54:00,
2013-07-12 10:34:00,73.0,54.0,-100.00,SSE,168,11.0,15.0,52,0.00,,,0.00,229.000000,,2013-07-12 17:34:00,
2013-07-12 10:44:00,73.0,54.0,-100.00,SSE,168,11.0,15.0,52,0.00,,,0.00,229.000000,,2013-07-12 17:44:00,
2013-07-12 10:53:00,73.0,54.0,-100.00,SSE,168,11.0,15.0,52,0.00,,,0.00,229.000000,,2013-07-12 17:53:00,
2013-07-12 11:34:00,77.0,51.0,-100.00,South,181,12.0,17.0,41,0.00,,,0.00,515.000000,,2013-07-12 18:34:00,
2013-07-12 11:45:00,77.0,51.0,-100.00,South,181,12.0,17.0,41,0.00,,,0.00,515.000000,,2013-07-12 18:45:00,
2013-07-12 12:44:00,79.0,51.0,-100.00,South,181,14.0,22.0,38,0.00,,,0.00,696.000000,,2013-07-12 19:44:00,
2013-07-12 12:54:00,79.0,51.0,-100.00,South,181,14.0,22.0,38,0.00,,,0.00,696.000000,,2013-07-12 19:54:00,
2013-07-12 13:33:00,81.0,50.0,-100.00,South,178,15.0,22.0,34,0.00,,,0.00,1074.000000,,2013-07-12 20:33:00,
2013-07-12 13:43:00,81.0,50.0,-100.00,South,178,15.0,22.0,34,0.00,,,0.00,1074.000000,,2013-07-12 20:43:00,
2013-07-12 14:33:00,81.0,48.0,-100.00,South,181,16.0,30.0,32,0.00,,,0.00,1142.000000,,2013-07-12 21:33:00,
2013-07-12 14:44:00,81.0,48.0,-100.00,South,181,16.0,30.0,32,0.00,,,0.00,1142.000000,,2013-07-12 21:44:00,
2013-07-12 15:43:00,82.0,48.0,-100.00,South,180,18.0,27.0,31,0.00,,,0.00,1090.000000,,2013-07-12 22:43:00,
2013-07-12 15:53:00,82.0,48.0,-100.00,South,180,18.0,27.0,31,0.00,,,0.00,1090.000000,,2013-07-12 22:53:00,
2013-07-12 16:33:00,81.0,47.0,-100.00,South,185,18.0,28.0,31,0.00,,,0.00,965.000000,,2013-07-12 23:33:00,
2013-07-12 16:42:00,81.0,47.0,-100.00,South,185,18.0,28.0,31,0.00,,,0.00,965.000000,,2013-07-12 23:42:00,
2013-07-12 16:53:00,81.0,47.0,-100.00,South,185,18.0,28.0,31,0.00,,,0.00,965.000000,,2013-07-12 23:53:00,
2013-07-12 17:45:00,79.0,53.0,-100.00,South,184,17.0,26.0,40,0.00,,,0.00,758.000000,,2013-07-13 00:45:00,
2013-07-12 17:53:00,79.0,53.0,-100.00,South,184,17.0,26.0,40,0.00,,,0.00,758.000000,,2013-07-13 00:53:00,
2013-07-12 18:34:00,75.0,52.0,-100.00,SSW,193,16.0,24.0,45,0.00,,,0.00,517.000000,,2013-07-13 01:34:00,
2013-07-12 18:45:00,75.0,52.0,-100.00,SSW,193,16.0,24.0,45,0.00,,,0.00,517.000000,,2013-07-13 01:45:00,
2013-07-12 18:54:00,75.0,52.0,-100.00,SSW,193,16.0,24.0,45,0.00,,,0.00,517.000000,,2013-07-13 01:54:00,
2013-07-12 19:35:00,71.0,52.0,-100.00,South,191,14.0,21.0,51,0.00,,,0.00,225.000000,,2013-07-13 02:35:00,
2013-07-12 19:44:00,71.0,52.0,-100.00,South,191,14.0,21.0,51,0.00,,,0.00,225.000000,,2013-07-13 02:44:00,
2013-07-12 19:53:00,71.0,52.0,-100.00,South,191,14.0,21.0,51,0.00,,,0.00,225.000000,,2013-07-13 02:53:00,
2013-07-12 20:44:00,69.0,50.0,-100.00,SSW,201,11.0,20.0,50,0.00,,,0.00,74.000000,,2013-07-13 03:44:00,
2013-07-12 20:54:00,69.0,50.0,-100.00,SSW,201,11.0,20.0,50,0.00,,,0.00,74.000000,,2013-07-13 03:54:00,
2013-07-12 21:32:00,67.0,47.0,-100.00,SSW,193,9.0,16.0,49,0.00,,,0.00,4.000000,,2013-07-13 04:32:00,
2013-07-12 21:43:00,67.0,47.0,-100.00,SSW,193,9.0,16.0,49,0.00,,,0.00,4.000000,,2013-07-13 04:43:00,
2013-07-12 21:52:00,67.0,47.0,-100.00,SSW,193,9.0,16.0,49,0.00,,,0.00,4.000000,,2013-07-13 04:52:00,
2013-07-12 22:42:00,67.0,43.0,-100.00,SSW,205,8.0,13.0,42,0.00,,,0.00,1.000000,,2013-07-13 05:42:00,
2013-07-12 22:52:00,67.0,43.0,-100.00,SSW,205,8.0,13.0,42,0.00,,,0.00,1.000000,,2013-07-13 05:52:00,
2013-07-12 23:43:00,67.0,41.0,-100.00,SSW,207,7.0,11.0,38,0.00,,,0.00,1.000000,,2013-07-13 06:43:00,
2013-07-12 23:52:00,67.0,41.0,-100.00,SSW,207,7.0,11.0,38,0.00,,,0.00,1.000000,,2013-07-13 06:52:00,